Time;durP1;ratioP1;P1;durP2;ratioP2;P2;SDS_P1;SDS_P2;PMS_P1;PMS_P2;Temp;Humidity;BMP_temperature;BMP_pressure;BME280_temperature;BME280_humidity;BME280_pressure;Samples;Min_cycle;Max_cycle;Signal;HPM_P1;HPM_P2
2022/08/09 00:02:27;;;;;;;5.80;5.10;;;;;;;17.86;88.06;100127.73;108664;1282;22409;-60
2022/08/09 00:04:54;;;;;;;6.00;5.00;;;;;;;17.85;88.30;100130.88;108347;1282;139053;-57
2022/08/09 00:07:42;;;;;;;5.70;4.20;;;;;;;17.83;88.40;100124.71;104175;1283;22719;-57
2022/08/09 00:10:10;;;;;;;5.70;5.10;;;;;;;17.84;88.62;100126.70;108383;1281;138133;-60
2022/08/09 00:12:47;;;;;;;7.00;5.20;;;;;;;17.83;88.73;100117.60;108703;1281;23160;-58
2022/08/09 00:15:21;;;;;;;5.50;5.00;;;;;;;17.85;88.67;100120.30;108770;1280;22581;-57
2022/08/09 00:18:01;;;;;;;6.00;4.30;;;;;;;17.83;88.62;100115.73;108710;1281;22460;-60
2022/08/09 00:20:36;;;;;;;5.90;4.40;;;;;;;17.85;88.73;100118.19;108592;1282;22652;-57
2022/08/09 00:23:08;;;;;;;6.50;4.90;;;;;;;17.85;88.78;100118.26;108554;1281;138443;-57
2022/08/09 00:25:55;;;;;;;8.00;4.60;;;;;;;17.87;88.80;100117.30;108707;1282;22447;-58
2022/08/09 00:28:22;;;;;;;9.20;4.80;;;;;;;17.87;88.71;100118.89;108604;1281;139727;-58
2022/08/09 00:30:52;;;;;;;7.00;4.30;;;;;;;17.86;88.81;100118.63;108710;1281;22426;-58
2022/08/09 00:33:19;;;;;;;5.10;4.60;;;;;;;17.86;88.74;100115.42;108588;1282;22548;-57
2022/08/09 00:36:06;;;;;;;8.70;4.80;;;;;;;17.84;88.69;100119.02;108679;1282;23343;-58
2022/08/09 00:38:34;;;;;;;7.00;4.90;;;;;;;17.83;88.71;100115.89;108696;1282;22477;-58
2022/08/09 00:41:02;;;;;;;4.90;4.40;;;;;;;17.83;88.80;100117.66;108505;1281;138844;-58
2022/08/09 00:43:36;;;;;;;6.80;4.00;;;;;;;17.83;88.78;100115.79;108667;1281;22567;-58
2022/08/09 00:46:22;;;;;;;5.10;4.50;;;;;;;17.84;88.81;100113.34;108579;1281;138912;-58
2022/08/09 00:49:09;;;;;;;7.70;5.20;;;;;;;17.83;88.95;100114.62;108694;1281;23439;-58
2022/08/09 00:51:36;;;;;;;7.00;4.80;;;;;;;17.84;88.96;100113.46;108617;1281;139540;-58
2022/08/09 00:54:20;;;;;;;5.40;4.90;;;;;;;17.83;88.84;100115.84;108466;1282;23572;-58
2022/08/09 00:56:56;;;;;;;6.20;4.20;;;;;;;17.80;88.72;100116.20;108686;1281;23408;-59
2022/08/09 00:59:24;;;;;;;5.40;4.30;;;;;;;17.76;88.56;100115.07;108530;1281;139472;-58
2022/08/09 01:02:11;;;;;;;6.20;4.20;;;;;;;17.74;88.53;100112.12;108810;1281;23595;-58
2022/08/09 01:05:01;;;;;;;9.70;4.60;;;;;;;17.72;88.65;100114.30;108497;1282;139525;-58
2022/08/09 01:07:47;;;;;;;5.90;4.20;;;;;;;17.70;88.71;100120.05;108563;1282;22535;-58
2022/08/09 01:10:36;;;;;;;;;;;;;;;17.66;88.77;100125.20;108566;1281;138717;-58
2022/08/09 01:13:12;;;;;;;10.00;4.80;;;;;;;17.63;88.72;100129.02;108846;1280;23740;-58
2022/08/09 01:15:44;;;;;;;5.90;4.40;;;;;;;17.60;88.89;100129.43;108563;1281;138220;-58
2022/08/09 01:18:21;;;;;;;6.70;4.80;;;;;;;17.57;89.14;100126.36;108664;1281;22670;-58
2022/08/09 01:21:15;;;;;;;4.70;4.30;;;;;;;17.56;89.42;100128.48;108573;1281;22503;-58
2022/08/09 01:23:58;;;;;;;5.70;4.10;;;;;;;17.56;89.88;100126.70;108559;1281;139350;-59
2022/08/09 01:26:49;;;;;;;10.10;5.30;;;;;;;17.59;90.25;100121.84;108573;1281;22444;-58
2022/08/09 01:29:25;;;;;;;4.20;3.80;;;;;;;17.61;90.24;100119.48;108558;1281;138124;-58
2022/08/09 01:31:54;;;;;;;6.00;4.40;;;;;;;17.62;90.27;100117.60;108706;1281;22479;-58
2022/08/09 01:34:41;;;;;;;;;;;;;;;17.63;90.39;100118.70;108721;1280;139073;-58
2022/08/09 01:37:09;;;;;;;4.10;3.70;;;;;;;17.63;90.54;100117.83;108503;1281;22472;-63
2022/08/09 01:39:38;;;;;;;4.70;4.00;;;;;;;17.65;90.57;100115.57;108716;1280;138796;-63
2022/08/09 01:42:06;;;;;;;3.50;3.20;;;;;;;17.66;90.55;100116.77;108638;1281;22464;-64
2022/08/09 01:44:37;;;;;;;4.80;3.90;;;;;;;17.68;90.56;100115.05;108497;1282;22472;-63
2022/08/09 01:47:04;;;;;;;3.50;2.60;;;;;;;17.69;90.26;100116.48;108536;1281;138162;-64
2022/08/09 01:49:33;;;;;;;3.70;2.90;;;;;;;17.70;90.19;100116.63;108504;1281;22699;-64
2022/08/09 01:52:10;;;;;;;3.50;2.90;;;;;;;17.71;89.63;100120.10;108463;1281;139133;-63
2022/08/09 01:54:45;;;;;;;3.10;2.40;;;;;;;17.73;89.20;100118.21;108678;1281;23028;-64
2022/08/09 01:57:19;;;;;;;2.60;2.40;;;;;;;17.74;88.66;100123.27;108670;1281;22461;-64
2022/08/09 01:59:48;;;;;;;4.50;2.70;;;;;;;17.75;88.25;100123.89;108463;1281;138760;-64
2022/08/09 02:02:27;;;;;;;4.30;2.10;;;;;;;17.77;87.75;100123.22;108695;1281;22467;-63
2022/08/09 02:04:59;;;;;;;2.50;2.20;;;;;;;17.79;87.52;100121.55;108471;1281;138378;-63
2022/08/09 02:07:33;;;;;;;2.10;1.90;;;;;;;17.81;87.15;100126.72;108704;1281;22700;-58
2022/08/09 02:10:22;;;;;;;3.70;2.40;;;;;;;17.81;86.71;100121.80;108594;1281;138670;-58
2022/08/09 02:12:57;;;;;;;2.40;2.10;;;;;;;17.82;86.55;100117.34;108661;1281;22465;-58
2022/08/09 02:15:24;;;;;;;2.30;2.00;;;;;;;17.82;86.44;100117.21;108580;1281;22550;-58
2022/08/09 02:18:12;;;;;;;2.40;2.20;;;;;;;17.84;86.12;100118.10;108507;1281;23319;-58
2022/08/09 02:20:40;;;;;;;4.70;2.80;;;;;;;17.84;86.03;100119.09;108752;1280;22467;-58
2022/08/09 02:23:27;;;;;;;4.00;2.20;;;;;;;17.84;85.72;100118.59;108543;1281;139128;-57
2022/08/09 02:26:05;;;;;;;2.50;2.20;;;;;;;17.82;85.45;100118.55;108675;1281;22456;-58
2022/08/09 02:28:34;;;;;;;2.90;2.60;;;;;;;17.81;85.21;100119.60;108392;1281;139735;-58
2022/08/09 02:31:11;;;;;;;4.40;3.20;;;;;;;17.79;85.06;100120.67;108710;1281;22542;-58
2022/08/09 02:33:40;;;;;;;2.40;2.20;;;;;;;17.77;84.84;100118.32;108446;1281;138358;-58
2022/08/09 02:36:38;;;;;;;4.30;2.80;;;;;;;17.74;84.86;100120.96;108710;1281;22541;-58
2022/08/09 02:39:11;;;;;;;2.90;2.70;;;;;;;17.70;84.86;100125.40;108523;1281;22404;-58
2022/08/09 02:41:52;;;;;;;3.10;2.80;;;;;;;17.68;84.91;100133.02;108368;1281;138074;-58
2022/08/09 02:44:22;;;;;;;2.70;2.20;;;;;;;17.65;85.06;100131.16;108513;1281;22443;-58
2022/08/09 02:46:56;;;;;;;2.50;2.30;;;;;;;17.64;85.15;100132.00;108553;1281;139203;-58
2022/08/09 02:49:23;;;;;;;2.30;2.10;;;;;;;17.65;85.10;100137.02;108599;1281;22563;-58
2022/08/09 02:52:05;;;;;;;2.50;2.30;;;;;;;17.65;85.13;100141.36;108332;1281;138205;-58
2022/08/09 02:54:33;;;;;;;2.60;2.20;;;;;;;17.65;85.03;100142.14;108836;1280;22539;-58
2022/08/09 02:57:01;;;;;;;2.40;2.20;;;;;;;17.65;85.16;100135.80;108809;1280;23996;-58
2022/08/09 02:59:39;;;;;;;3.70;2.90;;;;;;;17.64;85.05;100137.29;108554;1281;140172;-58
2022/08/09 03:02:26;;;;;;;2.70;2.30;;;;;;;17.65;85.17;100140.87;108555;1281;23115;-58
2022/08/09 03:04:53;;;;;;;2.90;2.50;;;;;;;17.64;85.16;100140.43;108383;1281;140397;-58
2022/08/09 03:07:22;;;;;;;3.10;2.20;;;;;;;17.64;85.09;100138.61;108484;1282;22509;-58
2022/08/09 03:09:49;;;;;;;3.40;2.40;;;;;;;17.63;84.88;100137.44;108563;1281;140852;-58
2022/08/09 03:12:22;;;;;;;4.40;2.40;;;;;;;17.61;85.03;100128.58;108709;1281;22491;-58
2022/08/09 03:14:49;;;;;;;3.50;2.30;;;;;;;17.61;85.19;100131.71;108654;1280;22246;-58
2022/08/09 03:17:16;;;;;;;2.50;2.10;;;;;;;17.60;85.15;100130.58;108582;1281;140385;-58
2022/08/09 03:19:54;;;;;;;2.70;2.30;;;;;;;17.60;85.32;100132.23;108503;1281;22460;-58
2022/08/09 03:22:29;;;;;;;2.40;2.10;;;;;;;17.60;85.31;100128.54;108500;1281;139643;-58
2022/08/09 03:24:57;;;;;;;2.20;2.00;;;;;;;17.61;85.33;100133.64;108710;1281;22535;-58
2022/08/09 03:27:32;;;;;;;2.50;2.30;;;;;;;17.62;85.35;100130.23;108491;1282;140595;-58
2022/08/09 03:30:12;;;;;;;2.70;2.50;;;;;;;17.63;85.44;100130.61;108543;1281;22540;-58
2022/08/09 03:32:39;;;;;;;3.70;1.90;;;;;;;17.64;85.51;100135.53;108872;1281;22354;-58
2022/08/09 03:35:11;;;;;;;2.60;2.30;;;;;;;17.65;85.48;100143.85;108462;1281;138196;-59
2022/08/09 03:37:50;;;;;;;2.60;2.40;;;;;;;17.64;85.50;100145.52;108630;1281;22453;-58
2022/08/09 03:40:24;;;;;;;2.60;2.20;;;;;;;17.63;85.43;100149.34;108449;1282;138467;-60
2022/08/09 03:42:56;;;;;;;6.10;2.20;;;;;;;17.63;85.54;100151.29;108614;1281;22527;-58
2022/08/09 03:45:23;;;;;;;2.70;2.40;;;;;;;17.66;85.74;100152.88;108750;1280;22611;-58
2022/08/09 03:48:10;;;;;;;2.40;2.00;;;;;;;17.69;85.81;100152.64;108829;1281;22510;-58
2022/08/09 03:50:44;;;;;;;4.10;2.30;;;;;;;17.71;85.67;100146.51;108791;1280;22487;-59
2022/08/09 03:53:14;;;;;;;2.70;1.90;;;;;;;17.73;85.65;100145.16;108545;1280;140093;-58
2022/08/09 03:55:40;;;;;;;2.80;2.10;;;;;;;17.75;85.58;100149.71;108477;1281;22468;-58
2022/08/09 03:58:08;;;;;;;2.20;2.00;;;;;;;17.76;85.21;100143.23;108658;1280;139446;-58
2022/08/09 04:00:46;;;;;;;3.00;2.30;;;;;;;17.78;85.14;100150.13;108770;1281;22399;-58
2022/08/09 04:03:13;;;;;;;2.00;1.80;;;;;;;17.80;85.17;100153.30;108635;1281;23356;-58
2022/08/09 04:05:50;;;;;;;4.00;1.90;;;;;;;17.83;85.01;100154.16;108499;1281;139954;-58
2022/08/09 04:08:16;;;;;;;2.50;2.00;;;;;;;17.85;84.60;100143.45;108774;1281;22565;-58
2022/08/09 04:10:43;;;;;;;2.80;2.10;;;;;;;17.87;84.22;100145.36;108595;1281;140065;-58
2022/08/09 04:13:15;;;;;;;1.90;1.70;;;;;;;17.88;84.01;100148.38;108607;1281;22457;-58
2022/08/09 04:15:44;;;;;;;3.10;2.00;;;;;;;17.90;83.76;100149.27;108648;1281;139108;-59
2022/08/09 04:18:31;;;;;;;2.10;1.70;;;;;;;17.92;83.46;100149.30;108636;1283;23172;-58
2022/08/09 04:20:59;;;;;;;2.30;2.00;;;;;;;17.93;83.14;100149.96;108837;1281;22571;-58
2022/08/09 04:23:25;;;;;;;1.60;1.50;;;;;;;17.94;82.77;100144.00;108701;1281;138276;-58
2022/08/09 04:25:53;;;;;;;1.80;1.40;;;;;;;17.94;82.35;100139.60;108654;1281;23342;-58
2022/08/09 04:28:21;;;;;;;3.30;1.90;;;;;;;17.93;82.09;100133.48;108615;1281;138495;-58
2022/08/09 04:31:03;;;;;;;1.80;1.70;;;;;;;17.96;82.04;100136.88;108754;1281;22459;-58
2022/08/09 04:33:36;;;;;;;2.30;1.90;;;;;;;17.97;81.98;100136.43;108505;1281;140569;-58
2022/08/09 04:36:20;;;;;;;3.50;1.60;;;;;;;18.00;81.86;100135.68;106662;1281;22596;-58
2022/08/09 04:38:49;;;;;;;3.90;1.60;;;;;;;18.03;81.68;100139.27;104610;1281;24322;-58
2022/08/09 04:41:15;;;;;;;2.30;1.80;;;;;;;18.08;81.67;100136.30;104251;1281;139238;-59
2022/08/09 04:43:43;;;;;;;2.40;1.50;;;;;;;18.15;81.39;100139.71;104353;1283;22578;-58
2022/08/09 04:46:29;;;;;;;2.50;1.60;;;;;;;18.20;80.77;100137.10;104544;1281;139122;-58
2022/08/09 04:49:16;;;;;;;3.60;1.60;;;;;;;18.26;79.99;100130.31;104506;1282;25396;-58
2022/08/09 04:51:56;;;;;;;1.80;1.70;;;;;;;18.31;79.78;100132.85;104341;1283;139956;-57
2022/08/09 04:54:22;;;;;;;3.00;1.60;;;;;;;18.37;79.48;100135.36;104570;1281;25283;-57
2022/08/09 04:56:49;;;;;;;2.90;1.90;;;;;;;18.42;79.11;100133.27;104369;1281;23752;-60
2022/08/09 04:59:16;;;;;;;2.20;1.50;;;;;;;18.50;78.84;100138.45;104244;1281;138433;-57
2022/08/09 05:01:48;;;;;;;3.00;1.90;;;;;;;18.55;78.00;100142.42;104339;1284;24292;-60
2022/08/09 05:04:14;;;;;;;3.00;1.70;;;;;;;18.58;77.88;100143.95;104356;1281;139898;-57
2022/08/09 05:06:41;;;;;;;2.00;1.50;;;;;;;18.61;77.41;100140.60;104533;1284;23244;-60
2022/08/09 05:09:09;;;;;;;3.50;1.40;;;;;;;18.64;77.30;100140.55;108537;1281;22494;-58
2022/08/09 05:11:38;;;;;;;2.00;1.50;;;;;;;18.70;77.03;100145.35;108741;1281;138152;-58
2022/08/09 05:14:09;;;;;;;2.40;1.40;;;;;;;18.77;76.68;100147.90;108616;1281;22459;-58
2022/08/09 05:16:40;;;;;;;1.90;1.50;;;;;;;18.83;76.60;100148.70;108769;1281;141128;-57
2022/08/09 05:19:26;;;;;;;2.50;1.30;;;;;;;18.92;76.55;100147.46;108815;1281;22412;-57
2022/08/09 05:22:12;;;;;;;5.20;1.60;;;;;;;19.06;76.32;100147.55;108680;1281;138583;-57
2022/08/09 05:24:59;;;;;;;4.90;1.90;;;;;;;19.19;75.79;100149.66;108813;1281;23665;-58
2022/08/09 05:27:28;;;;;;;2.10;1.70;;;;;;;19.28;75.31;100146.83;108648;1281;138096;-58
2022/08/09 05:29:56;;;;;;;1.90;1.40;;;;;;;19.34;75.13;100150.73;108615;1282;22497;-58
2022/08/09 05:32:25;;;;;;;1.50;1.40;;;;;;;19.38;75.08;100146.42;108667;1281;22469;-58
2022/08/09 05:34:55;;;;;;;1.70;1.50;;;;;;;19.43;74.79;100151.95;108558;1281;138767;-58
2022/08/09 05:37:22;;;;;;;1.40;1.30;;;;;;;19.47;74.24;100154.27;108694;1281;22545;-57
2022/08/09 05:39:50;;;;;;;2.30;1.30;;;;;;;19.55;74.02;100154.98;108807;1281;138389;-58
2022/08/09 05:42:17;;;;;;;1.70;1.50;;;;;;;19.71;74.15;100156.15;108620;1282;22447;-57
2022/08/09 05:44:51;;;;;;;3.40;1.60;;;;;;;19.90;73.19;100152.98;108704;1281;22488;-57
2022/08/09 05:47:22;;;;;;;2.60;1.40;;;;;;;20.05;72.27;100154.70;108576;1281;138141;-58
2022/08/09 05:49:50;;;;;;;2.20;1.40;;;;;;;20.16;71.88;100159.27;108908;1281;22613;-58
2022/08/09 05:52:37;;;;;;;2.60;1.70;;;;;;;20.24;71.62;100164.62;108627;1281;138563;-58
2022/08/09 05:55:05;;;;;;;2.30;1.90;;;;;;;20.26;71.46;100164.04;108740;1281;23234;-58
2022/08/09 05:57:35;;;;;;;2.50;1.60;;;;;;;20.30;71.49;100166.12;108790;1280;138518;-58
2022/08/09 06:00:22;;;;;;;3.50;1.60;;;;;;;20.43;71.36;100163.67;108924;1280;22513;-57
2022/08/09 06:02:49;;;;;;;1.50;1.40;;;;;;;20.57;70.55;100165.77;108816;1281;22463;-58
2022/08/09 06:05:26;;;;;;;2.90;1.80;;;;;;;20.69;70.11;100158.31;108651;1281;140255;-58
2022/08/09 06:08:13;;;;;;;4.60;1.80;;;;;;;20.77;69.38;100160.68;108700;1281;22451;-58
2022/08/09 06:10:50;;;;;;;;;;;;;;;20.81;69.06;100159.60;108809;1280;140290;-58
2022/08/09 06:13:17;;;;;;;2.30;1.60;;;;;;;20.81;68.55;100161.70;108798;1281;22542;-58
2022/08/09 06:15:47;;;;;;;1.80;1.60;;;;;;;20.80;68.46;100163.34;108585;1281;138574;-58
2022/08/09 06:18:20;;;;;;;2.60;1.80;;;;;;;20.79;68.41;100159.64;108681;1281;22450;-57
2022/08/09 06:20:50;;;;;;;3.90;1.60;;;;;;;20.78;68.66;100158.73;108751;1281;22535;-57
2022/08/09 06:23:22;;;;;;;2.40;2.10;;;;;;;20.81;68.75;100162.64;108619;1281;139279;-57
2022/08/09 06:26:09;;;;;;;1.90;1.60;;;;;;;20.88;67.92;100166.60;108770;1281;23599;-58
2022/08/09 06:28:36;;;;;;;1.50;1.40;;;;;;;20.93;68.14;100169.08;108667;1281;140485;-58
2022/08/09 06:31:03;;;;;;;4.90;1.50;;;;;;;20.99;67.23;100168.74;108708;1281;22463;-58
2022/08/09 06:33:30;;;;;;;1.40;1.30;;;;;;;21.00;65.99;100168.55;108627;1281;138920;-58
2022/08/09 06:36:08;;;;;;;2.70;1.40;;;;;;;20.99;66.17;100171.23;108727;1281;22422;-58
2022/08/09 06:38:39;;;;;;;1.30;1.20;;;;;;;20.96;65.65;100172.45;108913;1280;22673;-58
2022/08/09 06:41:15;;;;;;;2.10;1.50;;;;;;;20.89;65.79;100172.02;108635;1281;139766;-58
2022/08/09 06:43:45;;;;;;;2.40;1.40;;;;;;;20.86;66.01;100167.75;108882;1280;22479;-58
2022/08/09 06:46:13;;;;;;;1.90;1.60;;;;;;;20.87;66.25;100163.59;108654;1281;140258;-58
2022/08/09 06:49:00;;;;;;;;;;;;;;;20.87;66.45;100167.56;108642;1281;22585;-57
2022/08/09 06:51:26;;;;;;;10.10;1.80;;;;;;;20.89;66.40;100171.37;108914;1280;22444;-58
2022/08/09 06:53:54;;;;;;;2.00;1.40;;;;;;;20.86;65.29;100171.75;108735;1281;22572;-58
2022/08/09 06:56:26;;;;;;;1.30;1.10;;;;;;;20.78;64.20;100172.23;108879;1280;23239;-58
2022/08/09 06:58:57;;;;;;;1.80;1.60;;;;;;;20.74;64.18;100179.81;108584;1281;139419;-58
2022/08/09 07:01:44;;;;;;;9.40;1.60;;;;;;;20.73;64.71;100179.22;108650;1281;22487;-58
2022/08/09 07:04:23;;;;;;;1.80;1.70;;;;;;;20.71;65.00;100188.19;108661;1280;138224;-58
2022/08/09 07:06:52;;;;;;;5.10;1.30;;;;;;;20.69;64.65;100188.48;108681;1281;23226;-57
2022/08/09 07:09:29;;;;;;;3.00;1.20;;;;;;;20.68;64.88;100185.14;108782;1281;22382;-58
2022/08/09 07:12:16;;;;;;;4.50;1.60;;;;;;;20.66;64.92;100192.26;108843;1281;23250;-58
2022/08/09 07:14:45;;;;;;;4.20;2.90;;;;;;;20.66;64.64;100189.67;108627;1281;22518;-58
2022/08/09 07:17:20;;;;;;;4.90;2.50;;;;;;;20.65;64.44;100191.69;108571;1281;141046;-58
2022/08/09 07:19:48;;;;;;;5.80;3.20;;;;;;;20.64;64.62;100197.11;108895;1280;22548;-58
2022/08/09 07:22:24;;;;;;;2.70;1.90;;;;;;;20.62;64.84;100195.52;108693;1281;138444;-58
2022/08/09 07:25:04;;;;;;;2.60;1.30;;;;;;;20.61;64.15;100192.50;108657;1281;22418;-58
2022/08/09 07:27:37;;;;;;;2.50;1.40;;;;;;;20.61;63.46;100193.61;108669;1281;138263;-58
2022/08/09 07:30:19;;;;;;;6.90;1.30;;;;;;;20.60;63.42;100194.39;108649;1281;22443;-58
2022/08/09 07:32:50;;;;;;;2.60;1.50;;;;;;;20.60;63.16;100196.56;108712;1281;22476;-58
2022/08/09 07:35:17;;;;;;;2.70;1.50;;;;;;;20.59;62.98;100192.09;108740;1281;138135;-57
2022/08/09 07:37:45;;;;;;;2.70;1.10;;;;;;;20.58;62.79;100194.55;108895;1280;22447;-57
2022/08/09 07:40:16;;;;;;;1.60;1.50;;;;;;;20.59;63.12;100190.48;108604;1281;139931;-57
2022/08/09 07:42:54;;;;;;;2.80;1.70;;;;;;;20.61;63.41;100188.85;108777;1281;22576;-57
2022/08/09 07:45:26;;;;;;;13.70;5.20;;;;;;;20.63;63.76;100185.97;108691;1281;22542;-58
2022/08/09 07:48:05;;;;;;;4.50;1.70;;;;;;;20.66;63.28;100183.00;108828;1280;22424;-57
2022/08/09 07:50:32;;;;;;;1.90;1.60;;;;;;;20.69;63.44;100182.36;108799;1281;22491;-57
2022/08/09 07:53:03;;;;;;;2.70;2.30;;;;;;;20.72;63.84;100185.23;108462;1281;137576;-56
2022/08/09 07:55:31;;;;;;;2.70;1.30;;;;;;;20.76;63.99;100189.04;108574;1281;23190;-57
2022/08/09 07:58:18;;;;;;;;;;;;;;;20.81;63.38;100193.89;108737;1280;139621;-60
2022/08/09 08:00:51;;;;;;;3.60;1.80;;;;;;;20.83;62.37;100191.08;108853;1280;22459;-57
2022/08/09 08:03:32;;;;;;;1.70;1.10;;;;;;;20.85;60.60;100190.44;108717;1280;140013;-57
2022/08/09 08:06:03;;;;;;;1.60;1.20;;;;;;;20.87;59.55;100191.52;108613;1281;23068;-57
2022/08/09 08:08:30;;;;;;;2.50;1.10;;;;;;;20.88;59.20;100196.59;108754;1281;22503;-57
2022/08/09 08:11:17;;;;;;;1.20;1.20;;;;;;;20.89;58.12;100200.50;108683;1281;138497;-58
2022/08/09 08:14:04;;;;;;;1.20;1.10;;;;;;;20.89;57.24;100198.71;108900;1280;23564;-57
2022/08/09 08:16:32;;;;;;;8.80;1.50;;;;;;;20.89;57.11;100208.26;108549;1281;138007;-57
2022/08/09 08:19:00;;;;;;;2.40;1.30;;;;;;;20.88;56.82;100214.31;108675;1281;22597;-57
2022/08/09 08:21:29;;;;;;;2.90;1.10;;;;;;;20.88;57.02;100219.19;108543;1280;138747;-57
2022/08/09 08:23:56;;;;;;;2.90;1.60;;;;;;;20.87;58.29;100217.65;108865;1280;22864;-57
2022/08/09 08:26:27;;;;;;;1.80;1.10;;;;;;;20.86;58.19;100225.00;108580;1281;22493;-57
2022/08/09 08:29:16;;;;;;;1.20;1.10;;;;;;;20.82;58.03;100222.84;108820;1280;138439;-58
2022/08/09 08:31:46;;;;;;;2.60;0.90;;;;;;;20.80;58.58;100221.92;108671;1281;22453;-57
2022/08/09 08:34:31;;;;;;;1.60;1.10;;;;;;;20.81;58.32;100225.91;108650;1281;139674;-57
2022/08/09 08:37:00;;;;;;;3.00;1.20;;;;;;;20.81;57.69;100218.15;108509;1281;22474;-57
2022/08/09 08:39:27;;;;;;;1.40;1.30;;;;;;;20.81;57.89;100217.58;108798;1279;138700;-58
2022/08/09 08:41:58;;;;;;;1.30;1.00;;;;;;;20.82;58.24;100221.12;108598;1281;22456;-57
2022/08/09 08:44:27;;;;;;;3.10;1.20;;;;;;;20.83;57.67;100212.73;108801;1281;22585;-57
2022/08/09 08:46:57;;;;;;;4.20;1.20;;;;;;;20.83;57.39;100215.05;108545;1281;138202;-57
2022/08/09 08:49:31;;;;;;;2.80;1.60;;;;;;;20.83;57.81;100206.52;108704;1280;22547;-58
2022/08/09 08:52:14;;;;;;;1.00;1.00;;;;;;;20.85;57.84;100207.10;108676;1281;138726;-57
2022/08/09 08:55:01;;;;;;;1.30;1.20;;;;;;;20.86;57.33;100207.31;108681;1281;22435;-57
2022/08/09 08:57:31;;;;;;;6.10;1.20;;;;;;;20.87;57.12;100204.69;108542;1281;138648;-57
2022/08/09 09:00:03;;;;;;;1.50;1.10;;;;;;;20.88;57.25;100198.14;108645;1281;22453;-57
2022/08/09 09:02:42;;;;;;;1.40;1.20;;;;;;;20.84;57.49;100193.45;108678;1281;22451;-57
2022/08/09 09:05:12;;;;;;;1.70;1.00;;;;;;;20.83;57.50;100195.91;108623;1280;138793;-57
2022/08/09 09:07:43;;;;;;;3.40;1.60;;;;;;;20.85;57.68;100194.48;108591;1282;23195;-57
2022/08/09 09:10:10;;;;;;;1.40;1.30;;;;;;;20.84;57.59;100186.45;108725;1280;138789;-57
2022/08/09 09:12:37;;;;;;;1.80;1.20;;;;;;;20.85;58.29;100185.95;108690;1281;22560;-57
2022/08/09 09:15:06;;;;;;;5.60;1.50;;;;;;;20.87;57.97;100185.30;108742;1281;23336;-58
2022/08/09 09:17:35;;;;;;;3.10;1.40;;;;;;;20.91;57.92;100189.48;108608;1281;137779;-58
2022/08/09 09:20:18;;;;;;;1.50;1.30;;;;;;;20.94;57.70;100196.04;108738;1281;22472;-57
2022/08/09 09:22:57;;;;;;;2.20;1.10;;;;;;;20.97;57.72;100193.34;108863;1280;138438;-57
2022/08/09 09:25:42;;;;;;;1.30;1.10;;;;;;;20.97;56.94;100190.83;108945;1279;22544;-57
2022/08/09 09:28:33;;;;;;;4.60;1.40;;;;;;;20.96;57.21;100192.73;108850;1280;139963;-57
2022/08/09 09:31:21;;;;;;;3.90;1.30;;;;;;;20.92;58.19;100187.39;108683;1281;22578;-57
2022/08/09 09:34:11;;;;;;;5.90;1.80;;;;;;;20.90;58.71;100190.60;108815;1280;139640;-57
2022/08/09 09:36:40;;;;;;;1.10;1.00;;;;;;;20.89;59.00;100187.08;105981;1281;22564;-57
2022/08/09 09:39:21;;;;;;;3.60;1.50;;;;;;;20.91;59.44;100187.39;104540;1281;23068;-60
2022/08/09 09:41:49;;;;;;;3.90;1.20;;;;;;;20.93;59.30;100187.98;104512;1280;137928;-59
2022/08/09 09:44:23;;;;;;;1.10;1.00;;;;;;;20.95;59.47;100185.84;104577;1281;23212;-60
2022/08/09 09:47:02;;;;;;;4.20;1.30;;;;;;;20.96;59.67;100183.31;108499;1281;138749;-57
2022/08/09 09:49:29;;;;;;;2.80;1.20;;;;;;;20.99;59.51;100184.20;108676;1281;22460;-57
2022/08/09 09:52:16;;;;;;;1.50;1.20;;;;;;;21.01;58.48;100185.14;108549;1281;138916;-58
2022/08/09 09:55:08;;;;;;;2.90;1.20;;;;;;;21.03;58.13;100183.66;108909;1280;22453;-58
2022/08/09 09:57:59;;;;;;;1.10;1.00;;;;;;;21.05;58.04;100184.73;108855;1280;138947;-58
2022/08/09 10:00:49;;;;;;;2.20;1.20;;;;;;;21.06;58.38;100184.14;108840;1281;22415;-58
2022/08/09 10:03:37;;;;;;;3.40;1.10;;;;;;;21.09;58.22;100183.08;108902;1279;22573;-58
2022/08/09 10:06:05;;;;;;;3.80;1.40;;;;;;;21.11;58.00;100184.14;107045;1281;22609;-57
2022/08/09 10:08:32;;;;;;;4.00;1.00;;;;;;;21.12;57.55;100187.16;104534;1280;23977;-57
2022/08/09 10:14:30;;;;;;;2.80;1.50;;;;;;;21.16;57.05;100182.15;104606;1280;24427;-59
2022/08/09 10:17:12;;;;;;;3.70;1.40;;;;;;;21.19;56.74;100182.33;108510;1281;138547;-59
2022/08/09 10:20:04;;;;;;;2.90;1.20;;;;;;;21.23;56.41;100177.30;108608;1281;22444;-59
2022/08/09 10:22:37;;;;;;;2.70;1.50;;;;;;;21.24;56.19;100175.89;108728;1280;138868;-58
2022/08/09 10:25:06;;;;;;;5.80;2.00;;;;;;;21.24;56.33;100177.23;108819;1281;23628;-58
2022/08/09 10:27:43;;;;;;;2.90;1.40;;;;;;;21.27;56.37;100179.37;108560;1281;137925;-59
2022/08/09 10:30:23;;;;;;;5.60;2.30;;;;;;;21.29;56.32;100177.67;108653;1281;22556;-59
2022/08/09 10:33:10;;;;;;;;;;;;;;;21.29;55.88;100174.66;108785;1281;23367;-58
2022/08/09 10:35:56;;;;;;;7.60;1.60;;;;;;;21.27;55.76;100174.38;108791;1281;22467;-59
2022/08/09 10:38:28;;;;;;;5.40;1.50;;;;;;;21.26;55.90;100172.29;108787;1281;22486;-59
2022/08/09 10:41:15;;;;;;;2.70;1.40;;;;;;;21.25;55.63;100170.55;108674;1281;138686;-59
2022/08/09 10:43:45;;;;;;;5.20;1.30;;;;;;;21.23;55.40;100164.11;108664;1281;22537;-59
2022/08/09 10:46:31;;;;;;;1.60;1.20;;;;;;;21.21;54.74;100171.52;108773;1279;138414;-58
2022/08/09 10:49:20;;;;;;;2.40;1.20;;;;;;;21.17;54.34;100170.27;108682;1280;22455;-59
2022/08/09 10:52:11;;;;;;;3.50;1.30;;;;;;;21.14;54.32;100168.39;108649;1281;138117;-59
2022/08/09 10:54:47;;;;;;;4.00;1.30;;;;;;;21.13;54.39;100166.20;108534;1281;22445;-59
2022/08/09 10:57:18;;;;;;;1.00;0.90;;;;;;;21.12;54.02;100165.11;108343;1282;23207;-59
2022/08/09 10:59:45;;;;;;;3.30;0.90;;;;;;;21.10;53.80;100161.33;108338;1282;138334;-59
2022/08/09 11:02:37;;;;;;;3.80;1.70;;;;;;;21.11;53.49;100163.36;107508;1280;1429753;-58
2022/08/09 11:06:14;;;;;;;1.10;1.00;;;;;;;21.14;52.91;100160.58;102003;1309;545305;-59
2022/08/09 11:08:42;;;;;;;6.50;1.90;;;;;;;21.12;52.44;100162.16;104278;1284;25138;-59
2022/08/09 11:11:15;;;;;;;3.40;1.00;;;;;;;21.12;51.42;100160.63;104018;1287;136767;-59
2022/08/09 11:13:42;;;;;;;2.00;1.00;;;;;;;21.10;50.67;100160.05;108117;1287;23624;-59
2022/08/09 11:16:32;;;;;;;4.40;1.70;;;;;;;21.09;50.80;100157.52;108024;1287;137435;-59
2022/08/09 11:19:03;;;;;;;2.90;1.50;;;;;;;21.08;50.30;100156.15;107343;1286;1154005;-59
2022/08/09 11:21:49;;;;;;;4.00;1.40;;;;;;;21.08;49.52;100152.66;108191;1286;137884;-59
2022/08/09 11:25:10;;;;;;;1.90;1.60;;;;;;;21.08;49.39;100148.63;109142;1277;22444;-59
2022/08/09 11:27:38;;;;;;;3.50;1.50;;;;;;;21.09;49.93;100148.59;108921;1277;137166;-59
2022/08/09 11:30:28;;;;;;;4.10;1.20;;;;;;;21.11;49.41;100154.61;108995;1277;22571;-58
2022/08/09 11:33:10;;;;;;;1.80;1.30;;;;;;;21.09;49.46;100157.92;109131;1277;22458;-59
2022/08/09 11:35:45;;;;;;;2.40;1.30;;;;;;;21.06;49.52;100154.67;108839;1276;137234;-59
2022/08/09 11:38:22;;;;;;;1.50;1.20;;;;;;;21.04;49.91;100153.73;109267;1277;23452;-59
2022/08/09 11:41:12;;;;;;;1.50;1.00;;;;;;;21.02;50.44;100152.49;109149;1276;138031;-59
2022/08/09 11:43:41;;;;;;;1.00;0.80;;;;;;;21.05;50.94;100155.69;109254;1277;22630;-59
2022/08/09 11:46:08;;;;;;;3.40;1.30;;;;;;;21.05;50.95;100149.27;109072;1277;138388;-59
2022/08/09 11:48:50;;;;;;;1.30;1.10;;;;;;;21.06;51.24;100149.05;109012;1277;22455;-60
2022/08/09 11:51:18;;;;;;;4.40;1.10;;;;;;;21.06;51.08;100155.30;109150;1277;22543;-59
2022/08/09 11:54:11;;;;;;;1.40;1.00;;;;;;;21.06;50.99;100148.10;109110;1277;22466;-58
2022/08/09 11:56:39;;;;;;;4.60;1.60;;;;;;;21.05;50.36;100146.95;109306;1276;22479;-59